Time;durP1;ratioP1;P1;durP2;ratioP2;P2;SDS_P1;SDS_P2;PMS_P1;PMS_P2;Temp;Humidity;BMP_temperature;BMP_pressure;BME280_temperature;BME280_humidity;BME280_pressure;Samples;Min_cycle;Max_cycle;Signal;HPM_P1;HPM_P2
2024/03/23 00:00:33;;;;;;;31.20;14.05;;;;;;;;;;5056064;28;20409;-52
2024/03/23 00:02:59;;;;;;;17.38;7.13;;;;;;;;;;5056193;28;20060;-55
2024/03/23 00:05:24;;;;;;;12.90;4.20;;;;;;;;;;5039508;28;20326;-54
2024/03/23 00:07:53;;;;;;;12.88;3.88;;;;;;;;;;5056041;28;20071;-56
2024/03/23 00:10:20;;;;;;;14.40;3.53;;;;;;;;;;5055867;28;20025;-53
2024/03/23 00:12:46;;;;;;;16.95;3.67;;;;;;;;;;5056158;28;20036;-53
2024/03/23 00:15:12;;;;;;;20.23;4.95;;;;;;;;;;5055805;28;20024;-56
2024/03/23 00:17:37;;;;;;;17.40;4.05;;;;;;;;;;5055802;28;20049;-56
2024/03/23 00:20:03;;;;;;;18.70;4.03;;;;;;;;;;5055763;28;20056;-54
2024/03/23 00:22:30;;;;;;;15.02;3.55;;;;;;;;;;5055672;28;20067;-53
2024/03/23 00:24:56;;;;;;;20.35;4.00;;;;;;;;;;5055525;28;20107;-54
2024/03/23 00:27:21;;;;;;;19.83;4.20;;;;;;;;;;5055649;28;20398;-56
2024/03/23 00:29:47;;;;;;;20.30;4.50;;;;;;;;;;5055506;28;20074;-54
2024/03/23 00:32:13;;;;;;;23.40;5.05;;;;;;;;;;5055550;28;20112;-56
2024/03/23 00:34:38;;;;;;;23.10;4.95;;;;;;;;;;5054594;28;20021;-54
2024/03/23 00:37:04;;;;;;;19.67;5.20;;;;;;;;;;5055420;28;20398;-51
2024/03/23 00:39:30;;;;;;;20.73;4.40;;;;;;;;;;5055204;28;20064;-55
2024/03/23 00:41:55;;;;;;;21.13;5.22;;;;;;;;;;5055382;28;20048;-52
2024/03/23 00:44:21;;;;;;;23.17;5.03;;;;;;;;;;5055208;28;20472;-56
2024/03/23 00:46:47;;;;;;;19.00;4.35;;;;;;;;;;5055047;28;20061;-54
2024/03/23 00:49:12;;;;;;;21.27;4.93;;;;;;;;;;5055172;28;20052;-52
2024/03/23 00:51:38;;;;;;;19.48;4.68;;;;;;;;;;5055185;28;20040;-52
2024/03/23 00:54:03;;;;;;;19.33;4.85;;;;;;;;;;5055117;28;20103;-53
2024/03/23 00:56:29;;;;;;;24.23;4.85;;;;;;;;;;5054910;28;20021;-52
2024/03/23 00:58:54;;;;;;;17.63;4.80;;;;;;;;;;5055567;28;20027;-53
2024/03/23 01:01:19;;;;;;;20.02;4.57;;;;;;;;;;5037238;28;20404;-53
2024/03/23 01:03:44;;;;;;;20.63;4.63;;;;;;;;;;5054931;28;20044;-53
2024/03/23 01:06:10;;;;;;;20.80;5.10;;;;;;;;;;5048427;28;20032;-53
2024/03/23 01:08:35;;;;;;;19.60;5.07;;;;;;;;;;5034881;28;20068;-53
2024/03/23 01:11:01;;;;;;;22.17;4.82;;;;;;;;;;5035002;28;20087;-54
2024/03/23 01:13:26;;;;;;;19.48;4.47;;;;;;;;;;5034845;28;20025;-56
2024/03/23 01:15:53;;;;;;;23.38;5.22;;;;;;;;;;5054499;28;20052;-55
2024/03/23 01:18:18;;;;;;;19.48;4.93;;;;;;;;;;5054439;28;20111;-54
2024/03/23 01:20:44;;;;;;;22.40;5.55;;;;;;;;;;5054516;28;20064;-52
2024/03/23 01:23:09;;;;;;;25.77;5.57;;;;;;;;;;5054530;28;20024;-53
2024/03/23 01:25:34;;;;;;;20.85;5.07;;;;;;;;;;5054911;28;20096;-53
2024/03/23 01:28:00;;;;;;;21.73;4.97;;;;;;;;;;5054384;28;20028;-52
2024/03/23 01:30:25;;;;;;;16.23;4.18;;;;;;;;;;5054508;28;20353;-55
2024/03/23 01:32:50;;;;;;;15.40;3.38;;;;;;;;;;5037069;28;20434;-53
2024/03/23 01:35:15;;;;;;;13.43;3.10;;;;;;;;;;5054541;28;20095;-53
2024/03/23 01:37:40;;;;;;;15.95;3.17;;;;;;;;;;5054559;28;20397;-55
2024/03/23 01:40:06;;;;;;;13.35;2.58;;;;;;;;;;5054487;28;20017;-53
2024/03/23 01:42:31;;;;;;;12.32;2.83;;;;;;;;;;5054217;28;20044;-54
2024/03/23 01:44:56;;;;;;;16.08;3.75;;;;;;;;;;5054464;28;20021;-53
2024/03/23 01:47:22;;;;;;;14.25;3.40;;;;;;;;;;5054697;28;20032;-52
2024/03/23 01:49:47;;;;;;;14.43;2.95;;;;;;;;;;5054128;28;20074;-53
2024/03/23 01:52:12;;;;;;;12.68;3.03;;;;;;;;;;5054304;28;20017;-56
2024/03/23 01:54:37;;;;;;;13.60;3.03;;;;;;;;;;5054391;28;20130;-54
2024/03/23 01:57:03;;;;;;;14.27;3.13;;;;;;;;;;5053729;28;20036;-52
2024/03/23 01:59:28;;;;;;;10.82;2.83;;;;;;;;;;5054099;28;20021;-54
2024/03/23 02:01:53;;;;;;;11.73;3.00;;;;;;;;;;5054263;28;20028;-53
2024/03/23 02:04:18;;;;;;;15.27;3.08;;;;;;;;;;5036478;28;20040;-52
2024/03/23 02:06:44;;;;;;;12.70;3.28;;;;;;;;;;5053968;28;20108;-53
2024/03/23 02:09:09;;;;;;;16.88;3.72;;;;;;;;;;5054173;28;20026;-53
2024/03/23 02:11:35;;;;;;;10.88;2.75;;;;;;;;;;5054239;28;20009;-52
2024/03/23 02:14:00;;;;;;;11.23;2.85;;;;;;;;;;5054220;28;20129;-53
2024/03/23 02:16:25;;;;;;;20.35;3.10;;;;;;;;;;5036581;28;20358;-54
2024/03/23 02:18:50;;;;;;;16.38;3.05;;;;;;;;;;5053960;28;20052;-54
2024/03/23 02:21:15;;;;;;;14.23;2.70;;;;;;;;;;5054068;28;20132;-52
2024/03/23 02:23:41;;;;;;;16.15;3.38;;;;;;;;;;5054110;28;20472;-54
2024/03/23 02:26:06;;;;;;;10.13;2.80;;;;;;;;;;5054436;28;20022;-53
2024/03/23 02:28:31;;;;;;;12.82;2.88;;;;;;;;;;5054069;28;20090;-53
2024/03/23 02:30:57;;;;;;;9.95;2.75;;;;;;;;;;5053944;28;20025;-54
2024/03/23 02:33:22;;;;;;;15.95;3.70;;;;;;;;;;5054120;28;20021;-57
2024/03/23 02:35:47;;;;;;;14.63;3.30;;;;;;;;;;5054049;28;20408;-55
2024/03/23 02:38:12;;;;;;;13.70;2.72;;;;;;;;;;5054007;28;20087;-53
2024/03/23 02:40:38;;;;;;;11.75;3.08;;;;;;;;;;5054258;28;20032;-57
2024/03/23 02:43:03;;;;;;;12.98;3.22;;;;;;;;;;5054188;28;20099;-52
2024/03/23 02:45:28;;;;;;;12.32;2.72;;;;;;;;;;5053747;28;20426;-55
2024/03/23 02:47:54;;;;;;;14.10;3.50;;;;;;;;;;5053873;28;20029;-52
2024/03/23 02:50:19;;;;;;;14.43;3.63;;;;;;;;;;5053541;28;20335;-55
2024/03/23 02:52:44;;;;;;;14.05;4.00;;;;;;;;;;5053698;28;20060;-53
2024/03/23 02:55:10;;;;;;;11.50;2.80;;;;;;;;;;5053843;28;20473;-53
2024/03/23 02:57:35;;;;;;;10.82;2.95;;;;;;;;;;5056159;28;20025;-56
2024/03/23 03:00:00;;;;;;;14.07;3.30;;;;;;;;;;5056851;28;20029;-53
2024/03/23 03:02:25;;;;;;;10.88;3.00;;;;;;;;;;5105118;22;20109;-85
2024/03/23 03:04:51;;;;;;;12.95;3.17;;;;;;;;;;5080144;28;20084;-85
2024/03/23 03:07:16;;;;;;;14.80;3.47;;;;;;;;;;5097750;28;20024;-85
2024/03/23 03:09:42;;;;;;;13.68;3.63;;;;;;;;;;5079542;28;20024;-85
2024/03/23 03:12:08;;;;;;;15.98;3.42;;;;;;;;;;5098161;28;20130;-84
2024/03/23 03:14:33;;;;;;;12.93;3.17;;;;;;;;;;5097443;28;20051;-85
2024/03/23 03:17:00;;;;;;;15.68;3.40;;;;;;;;;;5098154;28;20150;-85
2024/03/23 03:19:26;;;;;;;13.10;2.80;;;;;;;;;;5079209;28;20024;-85
2024/03/23 03:21:51;;;;;;;14.23;3.15;;;;;;;;;;5079898;28;20494;-85
2024/03/23 03:24:16;;;;;;;11.18;3.00;;;;;;;;;;5079952;28;20219;-85
2024/03/23 03:26:43;;;;;;;12.43;3.20;;;;;;;;;;5096440;28;20032;-85
2024/03/23 03:29:08;;;;;;;14.30;2.97;;;;;;;;;;5079400;28;20373;-85
2024/03/23 03:31:37;;;;;;;12.18;2.85;;;;;;;;;;5097166;28;20016;-85
2024/03/23 03:34:05;;;;;;;14.23;3.30;;;;;;;;;;5097808;28;20031;-85
2024/03/23 03:36:31;;;;;;;14.75;3.00;;;;;;;;;;5079900;28;20345;-85
2024/03/23 03:38:56;;;;;;;14.70;2.85;;;;;;;;;;5097821;28;20009;-84
2024/03/23 03:41:21;;;;;;;16.65;2.95;;;;;;;;;;5079373;28;20016;-84
2024/03/23 03:43:46;;;;;;;12.05;2.90;;;;;;;;;;5096350;28;20031;-84
2024/03/23 03:46:12;;;;;;;17.25;3.03;;;;;;;;;;5097532;28;20057;-84
2024/03/23 03:48:38;;;;;;;12.07;3.03;;;;;;;;;;5079347;28;20026;-85
2024/03/23 03:51:04;;;;;;;13.07;2.83;;;;;;;;;;5078999;28;20020;-85
2024/03/23 03:53:34;;;;;;;12.60;2.83;;;;;;;;;;5097470;28;20077;-85
2024/03/23 03:56:03;;;;;;;13.45;2.65;;;;;;;;;;5079420;28;20020;-85
2024/03/23 03:58:28;;;;;;;14.15;3.35;;;;;;;;;;5095973;28;20334;-85
2024/03/23 04:00:54;;;;;;;11.88;2.15;;;;;;;;;;5099221;22;20049;-53
2024/03/23 04:03:19;;;;;;;10.90;2.75;;;;;;;;;;5036564;28;20112;-56
2024/03/23 04:05:49;;;;;;;16.08;3.10;;;;;;;;;;5036195;28;20031;-56
2024/03/23 04:08:14;;;;;;;12.98;2.42;;;;;;;;;;5035689;28;20029;-55
2024/03/23 04:10:40;;;;;;;17.65;3.33;;;;;;;;;;5036259;28;20017;-56
2024/03/23 04:13:05;;;;;;;23.88;3.63;;;;;;;;;;5035979;28;20415;-54
2024/03/23 04:15:30;;;;;;;14.50;3.53;;;;;;;;;;5036074;28;20025;-56
2024/03/23 04:17:56;;;;;;;10.38;2.83;;;;;;;;;;5035926;28;20021;-53
2024/03/23 04:20:21;;;;;;;11.07;2.60;;;;;;;;;;5035929;28;20087;-55
2024/03/23 04:22:46;;;;;;;17.25;3.22;;;;;;;;;;5035930;28;20018;-53
2024/03/23 04:25:11;;;;;;;13.38;2.47;;;;;;;;;;5035927;28;20021;-54
2024/03/23 04:27:37;;;;;;;14.63;2.78;;;;;;;;;;5035608;28;20030;-55
2024/03/23 04:30:03;;;;;;;11.45;2.40;;;;;;;;;;5035728;28;20025;-56
2024/03/23 04:32:29;;;;;;;15.38;3.05;;;;;;;;;;5035995;28;20017;-53
2024/03/23 04:34:54;;;;;;;17.75;2.78;;;;;;;;;;5036014;28;20101;-53
2024/03/23 04:37:20;;;;;;;17.52;2.92;;;;;;;;;;5035944;28;20032;-54
2024/03/23 04:39:45;;;;;;;17.05;2.90;;;;;;;;;;5035919;28;20025;-56
2024/03/23 04:42:10;;;;;;;13.63;3.22;;;;;;;;;;5035700;28;20108;-52
2024/03/23 04:44:35;;;;;;;16.95;3.17;;;;;;;;;;5035839;28;20441;-56
2024/03/23 04:47:01;;;;;;;16.45;3.10;;;;;;;;;;5035459;28;20430;-56
2024/03/23 04:49:26;;;;;;;16.17;3.08;;;;;;;;;;5035968;28;20025;-57
2024/03/23 04:51:51;;;;;;;18.33;4.13;;;;;;;;;;5035671;28;20017;-54
2024/03/23 04:54:17;;;;;;;17.23;3.45;;;;;;;;;;5035259;28;20104;-54
2024/03/23 04:56:42;;;;;;;15.15;4.05;;;;;;;;;;5035608;28;20102;-55
2024/03/23 04:59:07;;;;;;;14.55;3.60;;;;;;;;;;5035533;28;20029;-55
2024/03/23 05:01:32;;;;;;;15.52;3.55;;;;;;;;;;5035234;28;20025;-54
2024/03/23 05:03:58;;;;;;;13.63;3.15;;;;;;;;;;5035803;28;20052;-54
2024/03/23 05:06:23;;;;;;;16.27;3.65;;;;;;;;;;5035760;28;20025;-54
2024/03/23 05:08:49;;;;;;;23.15;4.30;;;;;;;;;;5035388;28;20096;-52
2024/03/23 05:11:15;;;;;;;17.17;3.50;;;;;;;;;;5035384;28;20065;-56
2024/03/23 05:13:41;;;;;;;13.32;3.60;;;;;;;;;;5035195;28;20060;-55
2024/03/23 05:16:06;;;;;;;14.15;3.50;;;;;;;;;;5035272;28;20354;-53
2024/03/23 05:18:31;;;;;;;17.35;3.72;;;;;;;;;;5035251;28;20053;-52
2024/03/23 05:20:57;;;;;;;21.75;4.22;;;;;;;;;;5034882;28;20064;-54
2024/03/23 05:23:22;;;;;;;18.40;3.83;;;;;;;;;;5035182;28;20335;-55
2024/03/23 05:25:47;;;;;;;13.15;3.20;;;;;;;;;;5035210;28;20052;-52
2024/03/23 05:28:13;;;;;;;12.52;3.13;;;;;;;;;;5035170;28;20021;-53
2024/03/23 05:30:38;;;;;;;15.13;3.38;;;;;;;;;;5035057;28;20021;-52
2024/03/23 05:33:03;;;;;;;17.73;4.40;;;;;;;;;;5035013;28;20028;-52
2024/03/23 05:35:28;;;;;;;18.30;3.45;;;;;;;;;;5035016;28;20075;-52
2024/03/23 05:37:54;;;;;;;15.43;4.03;;;;;;;;;;5034470;28;20021;-54
2024/03/23 05:40:19;;;;;;;19.13;3.80;;;;;;;;;;5034665;28;20022;-56
2024/03/23 05:42:44;;;;;;;17.58;4.28;;;;;;;;;;5034919;28;20029;-57
2024/03/23 05:45:11;;;;;;;16.90;3.88;;;;;;;;;;5034883;28;20021;-53
2024/03/23 05:47:36;;;;;;;18.52;4.05;;;;;;;;;;5034886;28;20402;-55
2024/03/23 05:50:02;;;;;;;15.18;4.75;;;;;;;;;;5035095;28;20021;-56
2024/03/23 05:52:27;;;;;;;16.35;4.07;;;;;;;;;;5034621;28;20117;-53
2024/03/23 05:54:52;;;;;;;17.33;3.92;;;;;;;;;;5034614;28;20025;-53
2024/03/23 05:57:18;;;;;;;14.70;3.63;;;;;;;;;;5018169;28;20029;-54
2024/03/23 05:59:44;;;;;;;21.48;5.20;;;;;;;;;;5034608;28;20029;-56
2024/03/23 06:02:10;;;;;;;18.20;4.05;;;;;;;;;;5034233;28;20022;-54
2024/03/23 06:04:35;;;;;;;16.00;4.05;;;;;;;;;;5034680;28;20021;-53
2024/03/23 06:07:01;;;;;;;14.95;3.90;;;;;;;;;;5034444;28;20009;-52
2024/03/23 06:09:26;;;;;;;21.58;5.03;;;;;;;;;;5034959;28;20083;-54
2024/03/23 06:11:51;;;;;;;13.98;4.10;;;;;;;;;;5034590;28;20025;-53
2024/03/23 06:14:16;;;;;;;17.23;3.92;;;;;;;;;;5034616;28;20355;-54
2024/03/23 06:16:42;;;;;;;21.40;4.32;;;;;;;;;;5034578;28;20415;-52
2024/03/23 06:19:07;;;;;;;22.77;4.45;;;;;;;;;;5034754;28;20418;-55
2024/03/23 06:21:33;;;;;;;19.55;5.13;;;;;;;;;;5034298;28;20093;-53
2024/03/23 06:23:58;;;;;;;21.88;4.85;;;;;;;;;;5034613;28;20101;-55
2024/03/23 06:26:23;;;;;;;20.25;5.10;;;;;;;;;;5034488;28;20033;-57
2024/03/23 06:28:49;;;;;;;19.83;5.88;;;;;;;;;;5034559;28;20357;-53
2024/03/23 06:31:14;;;;;;;22.75;5.20;;;;;;;;;;5034815;28;20025;-55
2024/03/23 06:33:40;;;;;;;19.05;5.25;;;;;;;;;;5038343;28;20320;-54
2024/03/23 06:36:06;;;;;;;18.50;5.28;;;;;;;;;;5038009;28;20032;-52
2024/03/23 06:38:31;;;;;;;19.77;4.97;;;;;;;;;;5037987;28;20025;-54
2024/03/23 06:40:56;;;;;;;15.65;4.60;;;;;;;;;;5037983;28;20071;-54
2024/03/23 06:43:22;;;;;;;23.70;5.60;;;;;;;;;;5020231;28;20078;-54
2024/03/23 06:45:53;;;;;;;23.60;6.30;;;;;;;;;;5037511;28;20052;-54
2024/03/23 06:48:19;;;;;;;24.33;6.93;;;;;;;;;;5037966;28;20018;-53
2024/03/23 06:50:44;;;;;;;20.50;5.40;;;;;;;;;;5037980;28;20460;-52
2024/03/23 06:53:09;;;;;;;15.88;4.68;;;;;;;;;;5037941;28;20032;-52
2024/03/23 06:55:35;;;;;;;22.02;5.88;;;;;;;;;;5037895;28;20021;-53
2024/03/23 06:58:00;;;;;;;22.88;5.97;;;;;;;;;;5037682;28;20021;-52
2024/03/23 07:00:25;;;;;;;23.02;6.60;;;;;;;;;;5037817;28;20111;-53
2024/03/23 07:02:51;;;;;;;21.58;6.63;;;;;;;;;;5037622;28;20112;-55
2024/03/23 07:05:16;;;;;;;24.20;6.50;;;;;;;;;;5054113;28;20021;-56
2024/03/23 07:07:42;;;;;;;22.67;6.82;;;;;;;;;;5037902;28;20045;-54
2024/03/23 07:10:07;;;;;;;21.55;6.38;;;;;;;;;;5037576;28;20040;-53
2024/03/23 07:12:32;;;;;;;22.42;6.63;;;;;;;;;;5037832;28;20331;-55
2024/03/23 07:14:58;;;;;;;23.35;6.93;;;;;;;;;;5037153;28;20029;-54
2024/03/23 07:17:23;;;;;;;25.40;6.88;;;;;;;;;;5037448;28;20021;-53
2024/03/23 07:19:48;;;;;;;24.48;7.68;;;;;;;;;;5037346;28;20032;-54
2024/03/23 07:22:13;;;;;;;20.60;6.05;;;;;;;;;;5037378;28;20323;-54
2024/03/23 07:24:39;;;;;;;24.38;6.95;;;;;;;;;;5037254;28;20045;-55
2024/03/23 07:27:05;;;;;;;25.73;7.15;;;;;;;;;;5037169;28;20454;-55
2024/03/23 07:29:30;;;;;;;19.08;6.32;;;;;;;;;;5036228;28;20029;-54
2024/03/23 07:31:55;;;;;;;20.60;6.53;;;;;;;;;;5036767;28;20025;-55
2024/03/23 07:34:21;;;;;;;19.02;6.40;;;;;;;;;;5037376;28;20040;-56
2024/03/23 07:36:46;;;;;;;19.90;6.03;;;;;;;;;;5037132;28;20350;-52
2024/03/23 07:39:11;;;;;;;21.27;5.85;;;;;;;;;;5036961;28;20052;-57
2024/03/23 07:41:36;;;;;;;20.25;5.88;;;;;;;;;;5036807;28;20091;-55
2024/03/23 07:44:02;;;;;;;18.63;5.88;;;;;;;;;;5036788;28;20017;-53
2024/03/23 07:46:27;;;;;;;19.85;5.78;;;;;;;;;;5037078;28;20014;-54
2024/03/23 07:48:52;;;;;;;18.10;6.07;;;;;;;;;;5036884;28;20053;-53
2024/03/23 07:51:20;;;;;;;19.98;5.95;;;;;;;;;;5036583;28;20096;-56
2024/03/23 07:53:48;;;;;;;21.65;5.43;;;;;;;;;;5037061;28;20099;-53
2024/03/23 07:56:15;;;;;;;18.20;5.40;;;;;;;;;;5036814;28;20021;-55
2024/03/23 07:58:40;;;;;;;20.08;5.63;;;;;;;;;;5035983;28;20041;-53
2024/03/23 08:01:09;;;;;;;17.40;5.60;;;;;;;;;;5035809;28;20068;-54
2024/03/23 08:03:37;;;;;;;14.80;5.13;;;;;;;;;;5034795;28;20025;-53
2024/03/23 08:06:06;;;;;;;22.40;6.43;;;;;;;;;;5036714;28;20028;-53
2024/03/23 08:08:31;;;;;;;22.98;5.70;;;;;;;;;;5036581;28;20022;-53
2024/03/23 08:10:57;;;;;;;19.55;5.05;;;;;;;;;;5035602;28;20048;-55
2024/03/23 08:13:22;;;;;;;14.27;5.35;;;;;;;;;;5036299;28;20469;-53
2024/03/23 08:15:47;;;;;;;18.55;5.03;;;;;;;;;;5036227;28;20460;-52
2024/03/23 08:18:13;;;;;;;13.98;4.93;;;;;;;;;;5036369;28;20403;-53
2024/03/23 08:20:38;;;;;;;18.77;5.38;;;;;;;;;;5036094;28;20462;-53
2024/03/23 08:23:04;;;;;;;16.98;5.60;;;;;;;;;;5035773;28;20045;-56
2024/03/23 08:25:33;;;;;;;21.50;5.30;;;;;;;;;;5036087;28;20030;-56
2024/03/23 08:27:58;;;;;;;20.15;4.80;;;;;;;;;;5035984;28;20096;-54
2024/03/23 08:30:24;;;;;;;19.10;4.20;;;;;;;;;;5036129;28;20060;-56
2024/03/23 08:32:49;;;;;;;21.88;5.22;;;;;;;;;;5035601;28;20441;-57
2024/03/23 08:35:14;;;;;;;23.42;5.32;;;;;;;;;;5035999;28;20021;-57
2024/03/23 08:37:39;;;;;;;16.52;4.25;;;;;;;;;;5035680;28;20108;-55
2024/03/23 08:40:05;;;;;;;15.95;4.07;;;;;;;;;;5036165;28;20061;-53
2024/03/23 08:42:30;;;;;;;16.30;4.20;;;;;;;;;;5035621;28;20032;-54
2024/03/23 08:44:55;;;;;;;17.25;4.32;;;;;;;;;;5036102;28;20488;-54
2024/03/23 08:47:21;;;;;;;17.73;4.68;;;;;;;;;;5035490;28;20032;-53
2024/03/23 08:49:46;;;;;;;16.48;4.22;;;;;;;;;;5035729;28;20022;-53
2024/03/23 08:52:11;;;;;;;20.77;3.97;;;;;;;;;;5035673;28;20014;-54
2024/03/23 08:54:36;;;;;;;19.65;4.40;;;;;;;;;;5035112;28;20029;-57
2024/03/23 08:57:01;;;;;;;13.57;3.45;;;;;;;;;;5035347;28;20033;-55
2024/03/23 08:59:27;;;;;;;7.78;2.00;;;;;;;;;;5035496;28;20040;-53
2024/03/23 09:01:52;;;;;;;7.40;1.70;;;;;;;;;;5035288;28;20029;-56
2024/03/23 09:04:18;;;;;;;6.60;2.25;;;;;;;;;;5035126;28;20021;-57
2024/03/23 09:06:43;;;;;;;9.27;2.42;;;;;;;;;;5034985;28;20055;-56
2024/03/23 09:09:08;;;;;;;9.38;2.38;;;;;;;;;;5035131;28;20033;-53
2024/03/23 09:11:33;;;;;;;13.00;2.75;;;;;;;;;;5035379;28;20442;-57
2024/03/23 09:13:59;;;;;;;9.88;2.33;;;;;;;;;;5035053;28;20104;-57
2024/03/23 09:16:24;;;;;;;10.93;2.53;;;;;;;;;;5035260;28;20064;-53
2024/03/23 09:18:49;;;;;;;6.63;2.15;;;;;;;;;;5035334;28;20408;-53
2024/03/23 09:21:15;;;;;;;8.82;2.80;;;;;;;;;;5035102;28;20017;-55
2024/03/23 09:23:40;;;;;;;9.98;3.15;;;;;;;;;;5035157;28;20021;-52
2024/03/23 09:26:07;;;;;;;12.57;3.17;;;;;;;;;;5034908;28;20100;-57
2024/03/23 09:28:32;;;;;;;12.70;3.33;;;;;;;;;;5035102;28;20404;-57
2024/03/23 09:31:04;;;;;;;17.60;3.95;;;;;;;;;;5035096;28;20025;-57
2024/03/23 09:33:29;;;;;;;14.80;3.40;;;;;;;;;;5034718;28;20032;-55
2024/03/23 09:35:55;;;;;;;16.40;3.08;;;;;;;;;;5034939;28;20435;-56
2024/03/23 09:38:20;;;;;;;18.67;3.47;;;;;;;;;;5034798;28;20569;-56
2024/03/23 09:40:48;;;;;;;15.73;3.45;;;;;;;;;;5034845;28;20358;-55
2024/03/23 09:43:13;;;;;;;14.02;3.33;;;;;;;;;;5034908;28;20033;-53
2024/03/23 09:45:39;;;;;;;14.18;3.50;;;;;;;;;;5034838;28;20033;-55
2024/03/23 09:48:05;;;;;;;9.25;2.78;;;;;;;;;;5034692;28;20035;-56
2024/03/23 09:50:31;;;;;;;14.25;3.25;;;;;;;;;;5034839;28;20029;-55
2024/03/23 09:52:56;;;;;;;15.38;3.38;;;;;;;;;;5034864;28;20033;-57
2024/03/23 09:55:21;;;;;;;18.88;4.22;;;;;;;;;;5034490;28;20450;-56
2024/03/23 09:57:46;;;;;;;11.02;3.05;;;;;;;;;;5034447;28;20068;-55
2024/03/23 10:00:12;;;;;;;14.50;3.08;;;;;;;;;;5034445;28;20026;-57
2024/03/23 10:02:37;;;;;;;17.85;3.40;;;;;;;;;;5033348;28;20048;-58
2024/03/23 10:05:02;;;;;;;15.82;3.63;;;;;;;;;;5034663;28;20433;-59
2024/03/23 10:07:31;;;;;;;11.55;3.70;;;;;;;;;;5037036;28;20033;-58
2024/03/23 10:09:56;;;;;;;17.30;4.40;;;;;;;;;;5039063;28;20100;-58
2024/03/23 10:12:23;;;;;;;14.48;3.28;;;;;;;;;;5021283;28;20109;-58
2024/03/23 10:14:48;;;;;;;11.15;2.53;;;;;;;;;;5038466;28;20027;-57
2024/03/23 10:17:17;;;;;;;14.90;3.50;;;;;;;;;;5038426;28;20458;-56
2024/03/23 10:19:42;;;;;;;10.00;2.67;;;;;;;;;;5038775;28;20350;-57
2024/03/23 10:22:14;;;;;;;11.00;2.88;;;;;;;;;;5038557;28;20028;-55
2024/03/23 10:24:39;;;;;;;13.98;3.15;;;;;;;;;;5038575;28;20032;-56
2024/03/23 10:27:05;;;;;;;13.57;3.22;;;;;;;;;;5038362;28;20025;-57
2024/03/23 10:29:30;;;;;;;9.45;2.60;;;;;;;;;;5038661;28;20366;-56
2024/03/23 10:32:07;;;;;;;7.90;2.42;;;;;;;;;;5038049;28;20033;-55
2024/03/23 10:34:32;;;;;;;7.75;2.00;;;;;;;;;;5018567;28;20095;-57
2024/03/23 10:36:58;;;;;;;9.40;2.35;;;;;;;;;;5029097;28;20037;-53
2024/03/23 10:39:24;;;;;;;9.60;2.10;;;;;;;;;;5038140;28;20514;-56
2024/03/23 10:41:53;;;;;;;7.47;2.05;;;;;;;;;;5038167;28;20096;-56
2024/03/23 10:44:19;;;;;;;8.98;2.00;;;;;;;;;;5038038;28;20354;-54
2024/03/23 10:46:44;;;;;;;9.25;2.20;;;;;;;;;;5037880;28;20109;-57
2024/03/23 10:49:10;;;;;;;9.13;2.45;;;;;;;;;;5038375;28;20104;-56
2024/03/23 10:51:35;;;;;;;9.25;2.35;;;;;;;;;;5020656;28;20017;-54
2024/03/23 10:54:04;;;;;;;11.05;1.80;;;;;;;;;;5038121;28;20117;-56
2024/03/23 10:56:33;;;;;;;6.32;1.55;;;;;;;;;;5037504;28;20028;-57
2024/03/23 10:58:59;;;;;;;4.95;1.58;;;;;;;;;;5037155;28;20071;-54
2024/03/23 11:01:25;;;;;;;5.47;1.88;;;;;;;;;;5037253;28;20057;-57
2024/03/23 11:03:51;;;;;;;6.28;1.63;;;;;;;;;;5037448;28;20053;-56
2024/03/23 11:06:36;;;;;;;4.97;1.13;;;;;;;;;;5037324;28;20091;-57
2024/03/23 11:09:01;;;;;;;3.80;1.10;;;;;;;;;;5037553;28;20450;-53
2024/03/23 11:11:28;;;;;;;5.13;1.42;;;;;;;;;;5037852;28;20036;-57
2024/03/23 11:13:53;;;;;;;4.43;1.13;;;;;;;;;;5037335;28;20449;-53
2024/03/23 11:16:28;;;;;;;10.13;3.92;;;;;;;;;;5037393;28;20029;-57
2024/03/23 11:18:53;;;;;;;5.60;2.30;;;;;;;;;;5037271;28;20347;-58
2024/03/23 11:21:37;;;;;;;3.00;1.08;;;;;;;;;;5037367;28;20021;-58
2024/03/23 11:24:15;;;;;;;3.10;1.27;;;;;;;;;;5037396;28;20433;-53
2024/03/23 11:26:40;;;;;;;6.35;1.30;;;;;;;;;;5036799;28;20025;-58
2024/03/23 11:29:09;;;;;;;7.13;1.20;;;;;;;;;;5037279;28;20017;-59
2024/03/23 11:31:36;;;;;;;7.13;1.20;;;;;;;;;;5037307;28;20022;-59
2024/03/23 11:34:04;;;;;;;7.30;1.30;;;;;;;;;;5037295;28;20021;-58
2024/03/23 11:36:30;;;;;;;5.63;1.42;;;;;;;;;;5022622;28;20423;-59
2024/03/23 11:38:55;;;;;;;4.35;1.10;;;;;;;;;;5037113;28;20022;-59
2024/03/23 11:41:20;;;;;;;4.93;1.40;;;;;;;;;;5036785;28;20040;-59
2024/03/23 11:43:45;;;;;;;7.13;1.50;;;;;;;;;;5019607;28;20013;-59
2024/03/23 11:46:10;;;;;;;5.65;1.77;;;;;;;;;;5037100;28;20017;-59
2024/03/23 11:48:36;;;;;;;5.80;1.85;;;;;;;;;;5037243;28;20123;-59
2024/03/23 11:51:01;;;;;;;10.35;3.35;;;;;;;;;;5037165;28;20103;-58
2024/03/23 11:53:30;;;;;;;11.80;4.50;;;;;;;;;;5036602;28;20029;-58
2024/03/23 11:55:59;;;;;;;10.00;2.42;;;;;;;;;;5036776;28;20066;-57
2024/03/23 11:58:25;;;;;;;6.93;1.60;;;;;;;;;;5036668;28;20096;-56
2024/03/23 12:00:51;;;;;;;4.93;1.63;;;;;;;;;;5036455;28;20469;-57
2024/03/23 12:03:18;;;;;;;4.05;1.05;;;;;;;;;;5036468;28;20029;-58
2024/03/23 12:05:47;;;;;;;3.75;1.15;;;;;;;;;;5036579;28;20076;-57
2024/03/23 12:08:15;;;;;;;6.07;1.40;;;;;;;;;;5036554;28;20029;-58
2024/03/23 12:10:40;;;;;;;3.08;1.13;;;;;;;;;;5036174;28;20402;-59
2024/03/23 12:13:06;;;;;;;5.80;1.15;;;;;;;;;;5036046;28;20026;-58
2024/03/23 12:15:31;;;;;;;3.38;1.25;;;;;;;;;;5036445;28;20025;-57
2024/03/23 12:18:06;;;;;;;7.80;1.20;;;;;;;;;;5036264;28;20025;-59
2024/03/23 12:20:31;;;;;;;4.22;1.38;;;;;;;;;;5036603;28;20029;-58
2024/03/23 12:23:06;;;;;;;4.28;1.30;;;;;;;;;;5036071;28;20091;-60
2024/03/23 12:25:31;;;;;;;5.03;0.90;;;;;;;;;;5036245;28;20022;-59
2024/03/23 12:27:58;;;;;;;4.32;0.90;;;;;;;;;;5036505;28;20075;-56
2024/03/23 12:30:24;;;;;;;5.22;1.40;;;;;;;;;;5035122;28;20025;-56
2024/03/23 12:32:49;;;;;;;7.55;1.40;;;;;;;;;;5036157;28;20385;-58
2024/03/23 12:35:14;;;;;;;6.18;1.50;;;;;;;;;;5036313;28;20446;-55
2024/03/23 12:37:39;;;;;;;7.28;1.70;;;;;;;;;;5035933;28;20017;-57
2024/03/23 12:40:05;;;;;;;6.72;1.70;;;;;;;;;;5035874;28;20018;-54
2024/03/23 12:42:30;;;;;;;7.18;1.90;;;;;;;;;;5035710;28;20029;-57
2024/03/23 12:44:55;;;;;;;7.32;1.95;;;;;;;;;;5035964;28;20053;-57
2024/03/23 12:47:20;;;;;;;4.90;1.50;;;;;;;;;;5035256;28;20163;-57
2024/03/23 12:49:46;;;;;;;6.65;1.48;;;;;;;;;;5034797;28;20029;-58
2024/03/23 12:52:12;;;;;;;7.68;1.48;;;;;;;;;;5035537;28;20446;-57
2024/03/23 12:54:37;;;;;;;6.22;1.60;;;;;;;;;;5035929;28;20021;-56
2024/03/23 12:57:03;;;;;;;5.88;1.65;;;;;;;;;;5035390;28;20040;-58
2024/03/23 12:59:28;;;;;;;6.43;1.50;;;;;;;;;;5035545;28;20024;-57
2024/03/23 13:01:54;;;;;;;5.18;1.30;;;;;;;;;;5034749;28;20025;-57
2024/03/23 13:04:20;;;;;;;4.35;1.40;;;;;;;;;;5035276;28;20347;-57
2024/03/23 13:06:45;;;;;;;5.78;1.30;;;;;;;;;;5035092;28;20032;-56
2024/03/23 13:09:11;;;;;;;5.22;1.30;;;;;;;;;;5035434;28;20462;-58
2024/03/23 13:11:36;;;;;;;4.03;1.50;;;;;;;;;;5035399;28;20021;-57
2024/03/23 13:14:01;;;;;;;5.45;1.20;;;;;;;;;;5035349;28;20017;-55
2024/03/23 13:16:26;;;;;;;5.07;1.35;;;;;;;;;;5035049;28;20029;-56
2024/03/23 13:18:51;;;;;;;3.55;0.93;;;;;;;;;;5035280;28;20163;-57
2024/03/23 13:21:17;;;;;;;7.30;1.75;;;;;;;;;;5035150;28;20031;-56
2024/03/23 13:23:43;;;;;;;3.35;0.95;;;;;;;;;;5035190;28;20023;-55
2024/03/23 13:26:08;;;;;;;5.25;1.10;;;;;;;;;;5034640;28;20108;-55
2024/03/23 13:28:35;;;;;;;4.40;1.20;;;;;;;;;;5034888;28;20522;-56
2024/03/23 13:31:03;;;;;;;5.53;1.35;;;;;;;;;;5035089;28;20026;-57
2024/03/23 13:33:28;;;;;;;5.25;1.17;;;;;;;;;;5034995;28;20025;-54
2024/03/23 13:35:55;;;;;;;4.82;1.00;;;;;;;;;;5034589;28;20347;-56
2024/03/23 13:38:20;;;;;;;6.75;1.23;;;;;;;;;;5035426;28;20057;-58
2024/03/23 13:40:58;;;;;;;5.88;1.50;;;;;;;;;;5035039;28;20095;-56
2024/03/23 13:43:24;;;;;;;5.95;1.70;;;;;;;;;;5034924;28;20022;-57
2024/03/23 13:45:59;;;;;;;4.60;1.33;;;;;;;;;;5034581;28;20029;-58
2024/03/23 13:48:25;;;;;;;3.40;0.95;;;;;;;;;;5034890;28;20092;-57
2024/03/23 13:50:59;;;;;;;5.30;1.45;;;;;;;;;;5034828;28;20021;-58
2024/03/23 13:53:25;;;;;;;3.58;1.27;;;;;;;;;;5035141;28;20079;-56
2024/03/23 13:55:50;;;;;;;4.20;0.98;;;;;;;;;;5033200;28;20025;-56
2024/03/23 13:58:15;;;;;;;3.80;1.33;;;;;;;;;;5034789;28;20036;-56
2024/03/23 14:00:42;;;;;;;5.50;1.48;;;;;;;;;;5034301;28;20030;-55
2024/03/23 14:03:08;;;;;;;5.25;1.40;;;;;;;;;;5034077;28;20024;-58
2024/03/23 14:05:33;;;;;;;4.32;1.20;;;;;;;;;;5034707;28;20343;-57
2024/03/23 14:07:58;;;;;;;4.65;1.30;;;;;;;;;;5034469;28;20096;-54
2024/03/23 14:10:23;;;;;;;4.60;1.73;;;;;;;;;;5034663;28;20150;-57
2024/03/23 14:12:49;;;;;;;5.28;1.45;;;;;;;;;;5034614;28;20170;-54
2024/03/23 14:15:14;;;;;;;5.28;1.30;;;;;;;;;;5034652;28;20029;-54
2024/03/23 14:17:39;;;;;;;5.95;1.80;;;;;;;;;;5034417;28;20025;-55
2024/03/23 14:20:05;;;;;;;4.68;1.40;;;;;;;;;;5034555;28;20082;-57
2024/03/23 14:22:30;;;;;;;6.07;2.25;;;;;;;;;;5034596;28;20053;-57
2024/03/23 14:24:56;;;;;;;6.32;1.42;;;;;;;;;;5034373;28;20039;-57